Time;durP1;ratioP1;P1;durP2;ratioP2;P2;SDS_P1;SDS_P2;PMS_P1;PMS_P2;Temp;Humidity;BMP_temperature;BMP_pressure;BME280_temperature;BME280_humidity;BME280_pressure;Samples;Min_cycle;Max_cycle;Signal;HPM_P1;HPM_P2
2023/01/14 00:01:54;;;;;;;9.05;2.90;;;5.40;15.30;;;;;;7365422;19;20074;-75
2023/01/14 00:04:23;;;;;;;10.70;3.30;;;5.30;15.20;;;;;;7366853;19;20034;-76
2023/01/14 00:06:53;;;;;;;6.63;2.90;;;5.30;15.40;;;;;;7365608;19;20010;-75
2023/01/14 00:09:26;;;;;;;7.47;2.25;;;5.20;15.50;;;;;;7384637;19;20015;-76
2023/01/14 00:11:59;;;;;;;7.15;2.53;;;5.20;15.50;;;;;;7365297;19;20038;-75
2023/01/14 00:14:31;;;;;;;6.82;2.35;;;5.10;15.70;;;;;;7363582;19;20011;-75
2023/01/14 00:17:02;;;;;;;9.75;2.67;;;5.00;15.90;;;;;;7364990;19;20014;-76
2023/01/14 00:19:32;;;;;;;8.55;2.40;;;5.00;17.50;;;;;;7363718;19;20010;-76
2023/01/14 00:22:02;;;;;;;9.43;2.42;;;4.90;17.20;;;;;;7365480;19;20016;-76
2023/01/14 00:24:32;;;;;;;8.60;2.50;;;4.90;17.50;;;;;;7370260;19;20103;-76
2023/01/14 00:27:04;;;;;;;8.68;2.60;;;4.90;17.40;;;;;;7386291;19;20018;-76
2023/01/14 00:29:36;;;;;;;5.22;2.22;;;4.90;17.20;;;;;;7359896;19;20010;-76
2023/01/14 00:32:07;;;;;;;8.52;2.25;;;4.90;17.50;;;;;;7366159;19;20018;-76
2023/01/14 00:34:38;;;;;;;9.02;2.30;;;4.80;17.60;;;;;;7363293;19;20018;-76
2023/01/14 00:37:08;;;;;;;12.05;5.25;;;4.80;17.90;;;;;;7365220;19;20011;-76
2023/01/14 00:39:38;;;;;;;10.02;2.88;;;4.70;18.00;;;;;;7362943;19;20513;-76
2023/01/14 00:42:11;;;;;;;6.88;2.00;;;4.70;18.80;;;;;;7385584;19;20022;-76
2023/01/14 00:44:41;;;;;;;8.18;2.50;;;4.70;19.20;;;;;;7363519;19;20019;-76
2023/01/14 00:47:11;;;;;;;11.85;2.53;;;4.60;19.30;;;;;;7364046;19;20172;-75
2023/01/14 00:49:40;;;;;;;9.50;2.55;;;4.60;19.30;;;;;;7363556;19;20474;-76
2023/01/14 00:52:10;;;;;;;7.97;2.45;;;4.60;19.30;;;;;;7364205;19;20019;-76
2023/01/14 00:54:40;;;;;;;9.77;2.88;;;4.60;19.30;;;;;;7362403;19;20015;-76
2023/01/14 00:57:14;;;;;;;8.35;2.55;;;4.60;19.00;;;;;;7385545;19;20473;-76
2023/01/14 00:59:43;;;;;;;9.65;2.47;;;4.60;18.60;;;;;;7364255;19;20018;-76
2023/01/14 01:02:13;;;;;;;9.70;2.30;;;4.60;18.80;;;;;;7364953;19;20020;-76
2023/01/14 01:04:43;;;;;;;11.48;2.60;;;4.60;18.80;;;;;;7362893;19;20620;-76
2023/01/14 01:07:13;;;;;;;7.82;2.63;;;4.60;18.30;;;;;;7363705;19;20017;-76
2023/01/14 01:09:43;;;;;;;11.15;2.30;;;4.70;17.90;;;;;;7361888;19;20731;-76
2023/01/14 01:12:15;;;;;;;5.25;2.17;;;4.60;17.50;;;;;;7385055;19;20491;-75
2023/01/14 01:14:47;;;;;;;7.53;2.33;;;4.70;17.20;;;;;;7361341;19;20348;-75
2023/01/14 01:17:17;;;;;;;8.68;2.15;;;4.70;16.50;;;;;;7362572;19;20030;-76
2023/01/14 01:19:48;;;;;;;9.18;2.70;;;4.70;16.00;;;;;;7362290;19;20010;-76
2023/01/14 01:22:18;;;;;;;6.30;2.33;;;4.70;16.00;;;;;;7363303;19;20022;-75
2023/01/14 01:24:47;;;;;;;7.88;2.40;;;4.70;15.70;;;;;;7363585;19;20021;-76
2023/01/14 01:27:20;;;;;;;10.98;2.40;;;4.60;15.70;;;;;;7384312;19;20461;-76
2023/01/14 01:29:50;;;;;;;6.35;2.40;;;4.60;15.40;;;;;;7360422;19;20148;-76
2023/01/14 01:32:19;;;;;;;10.70;2.35;;;4.60;15.30;;;;;;7363950;19;20015;-76
2023/01/14 01:34:49;;;;;;;6.53;2.00;;;4.60;15.60;;;;;;7362796;19;20042;-76
2023/01/14 01:37:19;;;;;;;8.05;2.30;;;4.60;15.70;;;;;;7363574;19;20014;-76
2023/01/14 01:39:49;;;;;;;7.07;2.00;;;4.60;15.60;;;;;;7361030;19;20366;-76
2023/01/14 01:42:24;;;;;;;10.38;2.17;;;4.70;14.90;;;;;;7383716;19;20068;-75
2023/01/14 01:45:25;;;;;;;12.23;2.42;;;4.70;14.20;;;;;;7361619;19;20017;-75
2023/01/14 01:47:59;;;;;;;6.97;2.00;;;4.70;13.80;;;;;;7362124;19;20018;-75
2023/01/14 01:50:29;;;;;;;8.68;2.28;;;4.70;14.10;;;;;;7360820;19;20021;-75
2023/01/14 01:53:00;;;;;;;10.32;2.20;;;4.70;13.20;;;;;;7362074;19;20010;-76
2023/01/14 01:55:33;;;;;;;4.57;2.03;;;4.80;13.30;;;;;;7362662;19;20033;-76
2023/01/14 01:58:06;;;;;;;8.60;2.20;;;4.80;12.50;;;;;;7365082;19;20010;-76
2023/01/14 02:00:36;;;;;;;10.27;2.38;;;4.80;12.50;;;;;;7359747;19;20375;-76
2023/01/14 02:03:09;;;;;;;7.68;2.40;;;4.90;11.80;;;;;;7382829;19;20007;-76
2023/01/14 02:05:40;;;;;;;10.10;2.13;;;4.90;11.50;;;;;;7361113;19;20006;-76
2023/01/14 02:08:09;;;;;;;7.53;2.05;;;5.00;9.70;;;;;;7361698;19;20581;-76
2023/01/14 02:11:09;;;;;;;9.35;2.25;;;4.90;9.80;;;;;;7360753;19;20082;-76
2023/01/14 02:13:54;;;;;;;7.45;2.00;;;4.90;10.00;;;;;;7361700;19;20349;-76
2023/01/14 02:16:37;;;;;;;6.32;1.95;;;4.90;10.20;;;;;;7362019;19;20043;-77
2023/01/14 02:19:29;;;;;;;7.43;2.17;;;4.80;10.30;;;;;;7360856;19;20444;-76
2023/01/14 02:22:17;;;;;;;8.27;1.90;;;4.70;11.50;;;;;;7361929;19;20509;-76
2023/01/14 02:25:13;;;;;;;8.98;2.55;;;4.60;12.30;;;;;;7362361;19;20533;-77
2023/01/14 02:27:51;;;;;;;5.10;2.05;;;4.60;12.30;;;;;;7361176;19;20010;-76
2023/01/14 02:30:45;;;;;;;8.60;2.25;;;4.50;13.30;;;;;;7380258;19;20011;-76
2023/01/14 02:33:28;;;;;;;9.63;2.33;;;4.50;12.60;;;;;;7363907;19;20014;-76
2023/01/14 02:36:06;;;;;;;7.32;2.15;;;4.50;13.10;;;;;;7358789;19;20070;-76
2023/01/14 02:38:42;;;;;;;10.88;2.72;;;4.50;13.10;;;;;;7359314;19;20083;-76
2023/01/14 02:41:20;;;;;;;6.53;2.10;;;4.40;13.40;;;;;;7360497;19;20805;-75
2023/01/14 02:44:10;;;;;;;7.07;1.77;;;4.40;14.00;;;;;;7360593;19;20010;-76
2023/01/14 02:46:45;;;;;;;8.85;2.17;;;4.40;14.20;;;;;;7360723;19;20014;-77
2023/01/14 02:49:19;;;;;;;9.98;2.10;;;4.30;14.60;;;;;;7359812;19;20020;-76
2023/01/14 02:51:50;;;;;;;10.38;1.90;;;4.30;14.70;;;;;;7361458;19;20017;-76
2023/01/14 02:54:21;;;;;;;5.32;1.88;;;4.30;14.60;;;;;;7391162;19;20101;-75
2023/01/14 02:56:51;;;;;;;9.23;1.92;;;4.40;14.40;;;;;;7367514;19;20015;-77
2023/01/14 02:59:46;;;;;;;7.45;2.00;;;4.50;12.80;;;;;;7365236;19;20018;-76
2023/01/14 03:02:38;;;;;;;7.63;2.05;;;4.60;12.30;;;;;;7367787;19;20091;-76
2023/01/14 03:05:34;;;;;;;6.93;2.20;;;4.80;11.20;;;;;;7366422;19;20412;-76
2023/01/14 03:08:13;;;;;;;6.22;1.52;;;4.90;9.50;;;;;;7367419;19;20056;-76
2023/01/14 03:10:48;;;;;;;8.88;2.22;;;4.90;9.00;;;;;;7367814;19;20022;-76
2023/01/14 03:13:23;;;;;;;5.93;1.85;;;4.90;9.20;;;;;;7367677;19;20372;-76
2023/01/14 03:16:02;;;;;;;8.68;2.38;;;4.80;10.30;;;;;;7365214;19;20524;-76
2023/01/14 03:18:39;;;;;;;8.98;2.00;;;4.80;10.60;;;;;;7369742;19;20010;-76
2023/01/14 03:21:15;;;;;;;5.22;2.08;;;4.80;11.10;;;;;;7388018;19;20018;-76
2023/01/14 03:23:49;;;;;;;6.85;2.20;;;4.90;11.40;;;;;;7366680;19;20112;-75
2023/01/14 03:26:19;;;;;;;8.02;2.33;;;5.00;10.80;;;;;;7367595;19;20007;-76
2023/01/14 03:28:50;;;;;;;9.73;2.00;;;5.10;9.90;;;;;;7365563;19;20014;-76
2023/01/14 03:31:25;;;;;;;5.90;1.80;;;5.00;10.00;;;;;;7366753;19;20021;-75
2023/01/14 03:34:02;;;;;;;6.50;1.70;;;5.00;10.40;;;;;;7366040;19;20397;-76
2023/01/14 03:36:36;;;;;;;4.35;1.77;;;5.10;10.70;;;;;;7369032;19;20011;-76
2023/01/14 03:39:09;;;;;;;8.05;2.42;;;5.10;10.60;;;;;;7386718;19;20023;-75
2023/01/14 03:44:27;;;;;;;11.23;2.25;;;5.10;11.20;;;;;;7366274;19;20697;-76
2023/01/14 03:46:57;;;;;;;;;;;5.10;11.10;;;;;;7367066;19;20010;-76
2023/01/14 03:49:30;;;;;;;11.60;3.33;;;5.10;11.10;;;;;;7367625;19;19994;-76
2023/01/14 03:52:02;;;;;;;8.55;2.47;;;5.10;10.50;;;;;;7366284;19;20015;-76
2023/01/14 03:54:39;;;;;;;4.55;2.13;;;5.20;10.70;;;;;;7365746;19;20014;-76
2023/01/14 03:57:15;;;;;;;6.20;1.58;;;5.20;10.10;;;;;;7387001;19;20525;-76
2023/01/14 03:59:50;;;;;;;8.00;2.38;;;5.10;9.10;;;;;;7363175;19;20010;-76
2023/01/14 04:02:22;;;;;;;6.32;1.73;;;5.10;9.00;;;;;;7365204;19;20014;-75
2023/01/14 04:04:56;;;;;;;6.55;2.28;;;5.10;9.00;;;;;;7366109;19;20014;-76
2023/01/14 04:07:27;;;;;;;8.80;2.67;;;5.10;9.10;;;;;;7365196;19;20042;-76
2023/01/14 04:09:57;;;;;;;8.95;2.53;;;5.10;9.00;;;;;;7363708;19;20010;-75
2023/01/14 04:12:26;;;;;;;6.80;3.30;;;5.00;9.00;;;;;;7387003;19;20629;-75
2023/01/14 04:17:39;;;;;;;7.03;2.70;;;4.90;9.40;;;;;;7364800;19;20010;-75
2023/01/14 04:20:12;;;;;;;10.73;2.25;;;4.80;10.10;;;;;;7364258;19;20053;-75
2023/01/14 04:22:42;;;;;;;10.70;2.45;;;4.80;11.20;;;;;;7365215;19;20011;-75
2023/01/14 04:25:12;;;;;;;5.28;2.22;;;4.70;11.70;;;;;;7366030;19;20014;-75
2023/01/14 04:27:42;;;;;;;9.27;2.10;;;4.70;12.20;;;;;;7364783;19;20019;-76
2023/01/14 04:30:13;;;;;;;8.75;1.80;;;4.70;11.90;;;;;;7383743;19;20014;-75
2023/01/14 04:32:43;;;;;;;6.88;1.85;;;4.70;12.40;;;;;;7366557;19;20014;-76
2023/01/14 04:35:16;;;;;;;6.45;2.28;;;4.80;12.30;;;;;;7363692;19;20482;-76
2023/01/14 04:37:46;;;;;;;8.38;1.83;;;4.80;11.60;;;;;;7365336;19;20014;-76
2023/01/14 04:40:16;;;;;;;5.90;1.80;;;4.90;10.90;;;;;;7363031;19;20015;-76
2023/01/14 04:42:43;;;;;;;5.47;1.50;;;5.00;9.90;;;;;;7363914;19;20018;-75
2023/01/14 04:45:14;;;;;;;6.25;1.52;;;5.00;10.00;;;;;;7389573;19;20043;-75
2023/01/14 04:47:43;;;;;;;4.60;1.35;;;4.90;10.50;;;;;;7364191;19;20026;-75
2023/01/14 04:53:06;;;;;;;5.03;1.38;;;4.90;10.70;;;;;;7364427;19;20011;-76
2023/01/14 04:55:39;;;;;;;5.72;1.40;;;5.00;10.10;;;;;;7363707;19;20014;-72
2023/01/14 04:58:11;;;;;;;5.28;1.85;;;5.00;9.50;;;;;;7363734;19;20018;-76
2023/01/14 05:00:41;;;;;;;4.80;1.45;;;5.00;9.60;;;;;;7364123;19;20018;-75
2023/01/14 05:03:13;;;;;;;4.90;1.38;;;5.10;9.60;;;;;;7385603;19;20050;-75
2023/01/14 05:05:47;;;;;;;8.82;1.40;;;5.10;8.60;;;;;;7363349;19;20018;-75
2023/01/14 05:08:19;;;;;;;6.18;1.38;;;5.10;9.00;;;;;;7363520;19;20035;-75
2023/01/14 05:10:51;;;;;;;7.50;1.67;;;5.10;9.10;;;;;;7363889;19;20566;-76
2023/01/14 05:13:20;;;;;;;9.35;1.65;;;5.10;9.20;;;;;;7363408;19;20014;-76
2023/01/14 05:15:50;;;;;;;5.55;1.80;;;5.20;9.10;;;;;;7361954;19;20015;-76
2023/01/14 05:18:20;;;;;;;5.15;1.58;;;5.20;9.00;;;;;;7383700;19;20392;-76
2023/01/14 05:20:52;;;;;;;11.98;1.40;;;5.20;8.70;;;;;;7362836;19;20019;-76
2023/01/14 05:23:22;;;;;;;7.97;2.03;;;5.20;8.40;;;;;;7363046;19;20033;-76
2023/01/14 05:25:52;;;;;;;3.15;1.23;;;5.30;8.30;;;;;;7364070;19;20018;-75
2023/01/14 05:28:23;;;;;;;4.85;1.45;;;5.30;7.70;;;;;;7362445;19;20014;-76
2023/01/14 05:30:52;;;;;;;5.13;1.17;;;5.30;7.40;;;;;;7362294;19;20531;-76
2023/01/14 05:33:22;;;;;;;6.38;1.60;;;5.30;7.20;;;;;;7387775;19;20032;-75
2023/01/14 05:35:57;;;;;;;7.20;1.45;;;5.30;7.00;;;;;;7361559;19;20021;-76
2023/01/14 05:38:28;;;;;;;5.72;1.20;;;5.30;7.00;;;;;;7361605;19;20549;-76
2023/01/14 05:40:58;;;;;;;7.70;1.65;;;5.20;7.60;;;;;;7365023;19;20336;-76
2023/01/14 05:46:11;;;;;;;4.35;1.20;;;5.20;7.50;;;;;;7362553;19;20006;-76
2023/01/14 05:48:41;;;;;;;7.80;1.83;;;5.30;7.50;;;;;;7361627;19;20052;-75
2023/01/14 05:51:15;;;;;;;5.47;1.33;;;5.30;7.10;;;;;;7384009;19;20025;-75
2023/01/14 05:53:45;;;;;;;8.30;1.95;;;5.30;7.40;;;;;;7362002;19;20014;-75
2023/01/14 05:56:15;;;;;;;5.93;1.63;;;5.30;6.90;;;;;;7360960;19;20015;-75
2023/01/14 05:58:45;;;;;;;7.22;1.40;;;5.40;6.20;;;;;;7361390;19;20094;-76
2023/01/14 06:06:47;;;;;;;7.38;1.90;;;5.40;6.00;;;;;;7361683;19;20022;-75
2023/01/14 06:09:19;;;;;;;9.55;3.00;;;5.30;6.50;;;;;;7381905;19;20021;-75
2023/01/14 06:11:50;;;;;;;9.57;2.00;;;5.30;6.40;;;;;;7361066;19;20025;-76
2023/01/14 06:14:20;;;;;;;5.95;1.70;;;5.40;5.50;;;;;;7361369;19;20032;-74
2023/01/14 06:16:51;;;;;;;5.03;1.70;;;5.40;4.90;;;;;;7360605;19;20021;-76
2023/01/14 06:19:22;;;;;;;13.25;2.22;;;5.40;4.10;;;;;;7360635;19;20095;-76
2023/01/14 06:21:54;;;;;;;9.38;1.67;;;5.30;4.20;;;;;;7361608;19;20000;-75
2023/01/14 06:24:24;;;;;;;8.90;2.33;;;5.20;4.70;;;;;;7383448;19;20012;-75
2023/01/14 06:26:54;;;;;;;8.10;1.65;;;5.20;4.80;;;;;;7360826;19;20032;-75
2023/01/14 06:29:23;;;;;;;9.27;1.70;;;5.20;4.60;;;;;;7366469;19;20014;-75
2023/01/14 06:31:53;;;;;;;10.13;1.70;;;5.10;5.20;;;;;;7368295;19;20006;-75
2023/01/14 06:34:23;;;;;;;9.10;1.55;;;5.10;5.30;;;;;;7368538;19;20018;-75
2023/01/14 06:36:56;;;;;;;10.07;2.40;;;5.00;5.40;;;;;;7368699;19;20010;-75
2023/01/14 06:39:26;;;;;;;7.05;2.10;;;5.00;5.30;;;;;;7390650;19;20492;-75
2023/01/14 06:41:58;;;;;;;8.32;1.70;;;5.00;5.30;;;;;;7368395;19;20028;-75
2023/01/14 06:44:28;;;;;;;6.32;2.10;;;4.90;5.90;;;;;;7368133;19;20507;-75
2023/01/14 06:46:57;;;;;;;7.20;2.00;;;4.90;6.10;;;;;;7367979;19;20020;-75
2023/01/14 06:49:27;;;;;;;11.75;2.30;;;4.90;6.00;;;;;;7367235;19;20021;-75
2023/01/14 06:52:00;;;;;;;7.47;2.40;;;4.90;5.30;;;;;;7367887;19;20372;-74
2023/01/14 06:54:29;;;;;;;9.70;2.75;;;4.90;5.30;;;;;;7389220;19;20033;-74
2023/01/14 06:56:59;;;;;;;6.50;2.50;;;5.00;5.30;;;;;;7366676;19;20010;-74
2023/01/14 06:59:29;;;;;;;7.95;2.47;;;5.00;5.30;;;;;;7365171;19;20019;-75
2023/01/14 07:01:59;;;;;;;8.82;2.85;;;5.00;5.20;;;;;;7367936;19;20011;-75
2023/01/14 07:04:29;;;;;;;5.90;2.50;;;5.00;5.30;;;;;;7367514;19;20439;-75
2023/01/14 07:07:01;;;;;;;9.32;2.78;;;5.10;5.30;;;;;;7367058;19;20023;-75
2023/01/14 07:09:31;;;;;;;7.20;2.22;;;5.10;4.10;;;;;;7378860;19;20011;-76
2023/01/14 07:12:01;;;;;;;6.90;2.03;;;5.20;3.10;;;;;;7388348;19;20014;-75
2023/01/14 07:14:31;;;;;;;6.30;1.42;;;5.30;2.10;;;;;;7366394;19;20382;-75
2023/01/14 07:17:02;;;;;;;9.07;2.40;;;5.30;1.80;;;;;;7365917;19;20816;-75
2023/01/14 07:19:32;;;;;;;11.10;1.63;;;5.30;1.60;;;;;;7366486;19;20478;-75
2023/01/14 07:22:05;;;;;;;4.93;1.17;;;5.40;1.00;;;;;;7365830;19;20014;-76
2023/01/14 07:24:37;;;;;;;4.90;1.85;;;5.40;1.00;;;;;;7367393;19;20393;-75
2023/01/14 07:27:07;;;;;;;8.95;1.80;;;5.40;1.00;;;;;;7389082;19;20038;-76
2023/01/14 07:29:37;;;;;;;4.43;1.65;;;5.40;1.00;;;;;;7364044;19;20015;-75
2023/01/14 07:32:07;;;;;;;6.55;1.73;;;5.50;1.00;;;;;;7366542;19;20059;-75
2023/01/14 07:34:37;;;;;;;8.88;2.47;;;5.50;1.00;;;;;;7369152;19;20018;-75
2023/01/14 07:37:09;;;;;;;8.70;1.63;;;5.50;1.00;;;;;;7365622;19;20019;-75
2023/01/14 07:39:39;;;;;;;6.15;1.52;;;5.50;1.00;;;;;;7363640;19;20014;-75
2023/01/14 07:42:08;;;;;;;11.63;3.22;;;5.40;1.00;;;;;;7387514;19;20018;-76
2023/01/14 07:44:38;;;;;;;7.18;1.88;;;5.40;1.00;;;;;;7365635;19;20071;-75
2023/01/14 07:47:08;;;;;;;6.97;1.80;;;5.40;1.00;;;;;;7366472;19;20021;-75
2023/01/14 07:49:39;;;;;;;7.50;1.90;;;5.50;1.00;;;;;;7365525;19;20014;-74
2023/01/14 07:52:14;;;;;;;6.20;1.70;;;5.50;1.00;;;;;;7365943;19;20017;-73
2023/01/14 07:54:44;;;;;;;9.30;2.05;;;5.50;1.00;;;;;;7365237;19;20014;-76
2023/01/14 07:57:15;;;;;;;5.07;1.80;;;5.50;1.00;;;;;;7386487;19;20338;-75
2023/01/14 07:59:45;;;;;;;5.90;1.88;;;5.50;1.00;;;;;;7363224;19;20021;-75
2023/01/14 08:02:15;;;;;;;6.68;1.60;;;5.60;1.00;;;;;;7365687;19;20006;-75
2023/01/14 08:04:45;;;;;;;9.23;1.90;;;5.60;1.00;;;;;;7365607;19;20019;-75
2023/01/14 08:07:18;;;;;;;10.07;1.88;;;5.60;1.00;;;;;;7365311;19;20010;-76
2023/01/14 08:09:48;;;;;;;5.70;2.15;;;5.70;1.00;;;;;;7363143;19;20416;-75
2023/01/14 08:12:17;;;;;;;9.75;3.38;;;5.70;1.00;;;;;;7386078;19;20483;-76
2023/01/14 08:14:47;;;;;;;10.20;2.83;;;5.80;1.00;;;;;;7364295;19;20017;-74
2023/01/14 08:17:17;;;;;;;10.68;2.97;;;5.90;1.00;;;;;;7364861;19;20015;-75
2023/01/14 08:19:47;;;;;;;8.02;2.63;;;5.90;1.00;;;;;;7364260;19;20015;-75
2023/01/14 08:22:19;;;;;;;4.80;1.90;;;6.00;1.00;;;;;;7364894;19;20037;-74
2023/01/14 08:24:50;;;;;;;7.50;2.08;;;6.00;1.00;;;;;;7365923;19;20073;-75
2023/01/14 08:27:19;;;;;;;12.25;2.90;;;6.10;1.00;;;;;;7386540;19;20019;-75
2023/01/14 08:29:49;;;;;;;8.55;2.42;;;6.10;1.00;;;;;;7365015;19;20371;-73
2023/01/14 08:32:19;;;;;;;10.27;3.00;;;6.20;1.00;;;;;;7366944;19;20003;-73
2023/01/14 08:34:49;;;;;;;8.70;2.92;;;6.20;1.00;;;;;;7364420;19;20029;-75
2023/01/14 08:37:22;;;;;;;7.25;2.10;;;6.30;1.00;;;;;;7364077;19;20516;-74
2023/01/14 08:39:52;;;;;;;5.47;1.98;;;6.40;1.00;;;;;;7363575;19;20004;-75
2023/01/14 08:42:21;;;;;;;9.25;2.22;;;6.50;1.00;;;;;;7385968;19;20019;-75
2023/01/14 08:44:51;;;;;;;10.07;2.40;;;6.60;1.00;;;;;;7363695;19;20097;-75
2023/01/14 08:47:21;;;;;;;9.35;1.92;;;6.70;1.00;;;;;;7363849;19;20830;-75
2023/01/14 08:49:51;;;;;;;8.25;1.73;;;6.70;1.00;;;;;;7360640;19;20022;-76
2023/01/14 08:52:23;;;;;;;4.97;2.28;;;6.70;1.00;;;;;;7364102;19;20014;-74
2023/01/14 08:54:53;;;;;;;5.40;1.50;;;6.80;1.00;;;;;;7363934;19;20433;-75
2023/01/14 08:57:23;;;;;;;9.02;1.55;;;6.90;1.00;;;;;;7384763;19;20010;-75
2023/01/14 08:59:53;;;;;;;10.70;2.20;;;7.00;1.00;;;;;;7360240;19;20034;-74
2023/01/14 09:02:23;;;;;;;7.00;1.90;;;7.10;1.00;;;;;;7363375;19;20516;-74
2023/01/14 09:04:53;;;;;;;8.23;1.63;;;7.20;1.00;;;;;;7363704;19;20007;-74
2023/01/14 09:18:20;;;;;;;7.93;1.70;;;7.50;1.00;;;;;;7382182;19;20018;-76
2023/01/14 09:20:51;;;;;;;7.15;2.15;;;7.40;1.00;;;;;;7361959;19;20050;-74
2023/01/14 09:23:23;;;;;;;7.13;1.85;;;7.50;1.00;;;;;;7362675;19;20021;-75
2023/01/14 09:25:53;;;;;;;6.18;1.50;;;7.50;1.00;;;;;;7364870;19;20010;-75
2023/01/14 09:28:23;;;;;;;6.97;1.35;;;7.50;1.00;;;;;;7362950;19;20007;-75
2023/01/14 09:30:52;;;;;;;10.13;1.88;;;7.60;1.00;;;;;;7362477;19;20018;-75
2023/01/14 09:33:22;;;;;;;6.55;1.75;;;7.60;1.00;;;;;;7386773;19;20015;-74
2023/01/14 09:35:52;;;;;;;5.03;1.83;;;7.60;1.00;;;;;;7361859;19;20011;-74
2023/01/14 09:38:28;;;;;;;5.28;1.70;;;7.70;1.00;;;;;;7361325;19;20018;-75
2023/01/14 09:40:58;;;;;;;5.72;1.30;;;7.80;1.00;;;;;;7362737;19;20018;-76
2023/01/14 09:43:42;;;;;;;6.22;1.85;;;7.90;1.00;;;;;;7362068;19;20019;-75
2023/01/14 09:46:13;;;;;;;5.20;1.27;;;8.00;1.00;;;;;;7361726;19;20017;-75
2023/01/14 09:48:43;;;;;;;5.07;1.50;;;8.10;1.00;;;;;;7361426;19;20014;-75
2023/01/14 09:51:36;;;;;;;5.60;1.50;;;8.20;1.00;;;;;;7382831;19;20015;-74
2023/01/14 09:54:15;;;;;;;7.30;1.38;;;8.30;1.00;;;;;;7361241;19;20357;-75
2023/01/14 09:56:49;;;;;;;7.20;1.42;;;8.40;1.00;;;;;;7361635;19;20037;-74
2023/01/14 09:59:28;;;;;;;5.07;1.70;;;8.50;1.00;;;;;;7359411;19;20022;-75
2023/01/14 10:02:04;;;;;;;6.70;1.50;;;8.50;1.00;;;;;;7362086;19;20017;-75
2023/01/14 10:04:49;;;;;;;4.18;1.77;;;8.60;1.00;;;;;;7361780;19;20085;-74
2023/01/14 10:07:21;;;;;;;4.70;1.65;;;8.70;1.00;;;;;;7361035;19;20403;-74
2023/01/14 10:09:57;;;;;;;6.00;1.50;;;8.60;1.00;;;;;;7360199;19;20065;-74
2023/01/14 10:12:33;;;;;;;2.38;1.10;;;8.70;1.00;;;;;;7382973;19;20102;-75
2023/01/14 10:15:12;;;;;;;7.72;1.45;;;8.70;1.00;;;;;;7361094;19;20024;-76
2023/01/14 10:17:45;;;;;;;4.97;1.33;;;8.70;1.00;;;;;;7361078;19;20015;-76
2023/01/14 10:20:20;;;;;;;4.18;1.30;;;8.70;1.00;;;;;;7359517;19;20014;-74
2023/01/14 10:22:56;;;;;;;5.38;1.20;;;8.70;1.00;;;;;;7363208;19;20512;-76
2023/01/14 10:25:28;;;;;;;4.65;1.38;;;8.70;1.00;;;;;;7362088;19;20034;-74
2023/01/14 10:28:00;;;;;;;2.00;0.77;;;8.80;1.00;;;;;;7360441;19;20014;-75
2023/01/14 10:30:35;;;;;;;6.18;1.10;;;8.90;1.00;;;;;;7380340;19;20019;-75
2023/01/14 10:33:07;;;;;;;6.05;1.95;;;8.90;1.00;;;;;;7363577;19;20015;-75
2023/01/14 10:35:39;;;;;;;2.97;1.20;;;9.00;1.00;;;;;;7360086;19;20468;-75
2023/01/14 10:38:12;;;;;;;4.50;1.40;;;9.00;1.00;;;;;;7359905;19;20485;-75
2023/01/14 10:40:45;;;;;;;6.47;1.70;;;9.00;1.00;;;;;;7360768;19;20018;-76
2023/01/14 10:43:24;;;;;;;8.15;2.05;;;9.00;1.00;;;;;;7360503;19;20010;-76
2023/01/14 10:45:53;;;;;;;6.13;1.67;;;8.90;1.00;;;;;;7360652;19;20014;-75
2023/01/14 10:48:25;;;;;;;8.32;1.92;;;8.90;1.00;;;;;;7380966;19;20125;-75
2023/01/14 10:50:55;;;;;;;3.85;1.52;;;9.00;1.00;;;;;;7359867;19;20018;-75
2023/01/14 10:53:26;;;;;;;7.30;1.35;;;9.00;1.00;;;;;;7359251;19;20497;-75
2023/01/14 10:56:00;;;;;;;9.40;2.35;;;9.00;1.00;;;;;;7360485;19;20025;-77
2023/01/14 10:58:36;;;;;;;4.68;1.90;;;9.00;1.00;;;;;;7358234;19;20025;-76
2023/01/14 11:01:08;;;;;;;4.05;1.80;;;8.90;1.00;;;;;;7359719;19;20017;-74
2023/01/14 11:03:41;;;;;;;5.53;2.00;;;9.00;1.00;;;;;;7359647;19;20019;-75
2023/01/14 11:06:14;;;;;;;4.72;1.98;;;9.00;1.00;;;;;;7380711;19;20358;-75
2023/01/14 11:08:52;;;;;;;5.32;2.00;;;9.00;1.00;;;;;;7359073;19;20362;-75
2023/01/14 11:11:27;;;;;;;6.75;2.17;;;9.10;1.00;;;;;;7358125;19;20015;-75
2023/01/14 11:13:59;;;;;;;4.47;1.73;;;9.10;1.00;;;;;;7362523;19;20014;-75
2023/01/14 11:16:33;;;;;;;6.82;1.70;;;9.10;1.00;;;;;;7366588;19;20428;-75
2023/01/14 11:19:05;;;;;;;4.40;1.65;;;9.10;1.00;;;;;;7368658;19;20014;-75
2023/01/14 11:21:37;;;;;;;2.92;1.30;;;9.10;1.00;;;;;;7366840;19;20384;-75
2023/01/14 11:24:24;;;;;;;6.22;1.70;;;9.10;1.00;;;;;;7388346;19;20572;-75
2023/01/14 11:27:06;;;;;;;6.50;1.60;;;9.10;1.00;;;;;;7366206;19;20014;-75
2023/01/14 11:29:38;;;;;;;6.03;1.80;;;9.10;1.00;;;;;;7364450;19;20180;-75
2023/01/14 11:32:11;;;;;;;5.75;1.80;;;9.10;1.00;;;;;;7366983;19;20014;-76
2023/01/14 11:34:47;;;;;;;6.13;2.00;;;9.10;1.00;;;;;;7366466;19;20024;-75
2023/01/14 11:37:20;;;;;;;8.20;2.72;;;9.20;1.00;;;;;;7367095;19;20454;-75
2023/01/14 11:39:52;;;;;;;7.00;1.90;;;9.20;1.00;;;;;;7364795;19;20018;-75
2023/01/14 11:42:36;;;;;;;4.82;1.58;;;9.30;1.00;;;;;;7387784;19;20018;-75
2023/01/14 11:45:17;;;;;;;5.70;1.70;;;9.30;1.00;;;;;;7365355;19;20021;-75
2023/01/14 11:47:49;;;;;;;2.38;1.30;;;9.40;1.00;;;;;;7365120;19;20038;-76
2023/01/14 11:50:22;;;;;;;6.55;1.45;;;9.50;1.00;;;;;;7364603;19;20019;-76
2023/01/14 11:53:02;;;;;;;5.00;1.50;;;9.60;1.00;;;;;;7365918;19;20082;-75
2023/01/14 11:55:35;;;;;;;2.63;1.02;;;9.60;1.00;;;;;;7366522;19;20019;-75
2023/01/14 11:58:18;;;;;;;5.45;1.25;;;9.60;1.00;;;;;;7365610;19;20497;-75
2023/01/14 12:00:52;;;;;;;2.70;1.25;;;9.60;1.00;;;;;;7363769;19;20026;-75
2023/01/14 12:03:34;;;;;;;4.82;1.40;;;9.70;1.00;;;;;;7386811;19;20018;-75
2023/01/14 12:06:08;;;;;;;4.90;1.50;;;9.70;1.00;;;;;;7365360;19;20017;-76
2023/01/14 12:08:42;;;;;;;3.53;1.42;;;9.70;1.00;;;;;;7363697;19;20034;-75
2023/01/14 12:11:18;;;;;;;4.47;1.20;;;9.70;1.00;;;;;;7364624;19;20014;-75
2023/01/14 12:16:55;;;;;;;4.90;1.38;;;9.70;1.00;;;;;;7365006;19;20094;-75
2023/01/14 12:19:30;;;;;;;3.70;1.25;;;9.70;1.00;;;;;;7363099;19;20015;-74
2023/01/14 12:22:07;;;;;;;9.23;1.52;;;9.70;1.00;;;;;;7364798;19;20018;-75
2023/01/14 12:24:44;;;;;;;2.80;1.20;;;9.70;1.00;;;;;;7364638;19;20373;-74
2023/01/14 12:27:42;;;;;;;3.95;1.45;;;9.70;1.00;;;;;;7385399;19;20136;-75
2023/01/14 12:30:40;;;;;;;2.63;1.17;;;9.70;1.00;;;;;;7361355;19;20011;-75
2023/01/14 12:33:20;;;;;;;3.83;1.58;;;9.60;1.00;;;;;;7367130;19;20384;-75
2023/01/14 12:35:54;;;;;;;4.22;1.70;;;9.60;1.00;;;;;;7364046;19;20017;-76
2023/01/14 12:46:50;;;;;;;5.47;1.42;;;9.50;1.00;;;;;;7363679;19;20065;-74
2023/01/14 12:49:20;;;;;;;5.88;1.60;;;9.50;1.00;;;;;;7363190;19;20510;-76
2023/01/14 12:51:51;;;;;;;12.82;1.92;;;9.50;1.00;;;;;;7363294;19;20513;-75
2023/01/14 12:54:27;;;;;;;2.63;1.60;;;9.50;1.00;;;;;;7385113;19;20014;-75
2023/01/14 12:56:59;;;;;;;5.88;1.67;;;9.50;1.00;;;;;;7363466;19;20010;-76
2023/01/14 12:59:32;;;;;;;3.25;1.58;;;9.50;1.00;;;;;;7361533;19;20014;-75
2023/01/14 13:02:08;;;;;;;4.03;1.48;;;9.50;1.00;;;;;;7362463;19;20017;-77
2023/01/14 13:04:48;;;;;;;4.22;1.52;;;9.60;1.00;;;;;;7363945;19;20486;-77
2023/01/14 13:07:23;;;;;;;2.80;1.00;;;9.50;1.00;;;;;;7362679;19;20160;-75
2023/01/14 13:09:56;;;;;;;2.80;1.20;;;9.50;1.00;;;;;;7361595;19;20015;-77
2023/01/14 13:12:30;;;;;;;6.53;1.83;;;9.50;1.00;;;;;;7386988;19;20007;-75
2023/01/14 13:15:02;;;;;;;3.92;1.30;;;9.50;1.00;;;;;;7363331;19;20025;-76
2023/01/14 13:17:37;;;;;;;5.03;1.40;;;9.50;1.00;;;;;;7362790;19;20031;-76
2023/01/14 13:20:58;;;;;;;2.78;1.25;;;9.50;1.00;;;;;;7361585;19;20109;-75
2023/01/14 13:24:04;;;;;;;3.33;1.90;;;9.60;1.00;;;;;;7359732;19;20011;-75
2023/01/14 13:26:48;;;;;;;;;;;9.50;1.00;;;;;;7362850;19;20093;-76
2023/01/14 13:29:24;;;;;;;5.00;1.60;;;9.60;1.00;;;;;;7360690;19;20596;-75
2023/01/14 13:31:55;;;;;;;3.63;1.45;;;9.60;1.00;;;;;;7363528;19;20013;-76
2023/01/14 13:35:03;;;;;;;2.67;1.60;;;9.60;1.00;;;;;;7362347;19;20459;-76
2023/01/14 13:37:47;;;;;;;4.00;1.92;;;9.60;1.00;;;;;;7361468;19;20474;-75
2023/01/14 13:40:20;;;;;;;5.70;1.95;;;9.70;1.00;;;;;;7360505;19;20010;-78
2023/01/14 13:42:59;;;;;;;5.30;2.38;;;9.60;1.00;;;;;;7361179;19;20013;-75
2023/01/14 13:45:31;;;;;;;5.20;1.90;;;9.70;1.00;;;;;;7383460;19;20030;-75
2023/01/14 13:48:14;;;;;;;6.70;2.10;;;9.60;1.00;;;;;;7362120;19;20011;-77
2023/01/14 13:50:49;;;;;;;5.50;2.08;;;9.60;1.00;;;;;;7361544;19;20095;-76
2023/01/14 13:53:27;;;;;;;;;;;9.60;1.00;;;;;;7361873;19;20018;-74
2023/01/14 13:56:00;;;;;;;5.72;2.00;;;9.60;1.00;;;;;;7362006;19;19918;-76
2023/01/14 13:58:34;;;;;;;5.20;1.90;;;9.60;1.00;;;;;;7359146;19;20029;-76
2023/01/14 14:01:26;;;;;;;5.75;2.00;;;9.60;1.00;;;;;;7360911;19;20406;-76
2023/01/14 14:03:57;;;;;;;5.60;2.38;;;9.60;1.00;;;;;;7360575;19;20066;-75
2023/01/14 14:06:48;;;;;;;5.32;1.90;;;9.60;1.00;;;;;;7384324;19;20367;-75
2023/01/14 14:09:31;;;;;;;4.32;2.17;;;9.60;1.00;;;;;;7362131;19;20105;-75
2023/01/14 14:15:19;;;;;;;5.30;2.50;;;9.50;1.00;;;;;;7361341;19;20018;-77
2023/01/14 14:17:54;;;;;;;5.55;2.40;;;9.50;1.00;;;;;;7360414;19;20073;-75
2023/01/14 14:20:28;;;;;;;8.30;3.00;;;9.40;1.00;;;;;;7359918;19;20126;-74
2023/01/14 14:23:03;;;;;;;8.23;3.40;;;9.40;1.00;;;;;;7360929;19;20010;-75